sensor_id;sensor_type;location;lat;lon;timestamp;P1;durP1;ratioP1;P2;durP2;ratioP2
20824;SDS011;10573;50.936;6.978;2022-07-30T11:54:13;7.35;;;3.22;;
20824;SDS011;10573;50.936;6.978;2022-07-30T11:56:48;13.77;;;3.03;;
20824;SDS011;10573;50.936;6.978;2022-07-30T11:59:14;6.53;;;2.70;;
20824;SDS011;10573;50.936;6.978;2022-07-30T12:01:39;6.88;;;3.08;;
20824;SDS011;10573;50.936;6.978;2022-07-30T12:04:05;5.93;;;3.70;;
20824;SDS011;10573;50.936;6.978;2022-07-30T12:06:33;7.32;;;3.05;;
20824;SDS011;10573;50.936;6.978;2022-07-30T12:09:06;9.27;;;5.57;;
20824;SDS011;10573;50.936;6.978;2022-07-30T12:11:33;7.95;;;3.00;;
20824;SDS011;10573;50.936;6.978;2022-07-30T12:13:59;6.07;;;3.15;;
20824;SDS011;10573;50.936;6.978;2022-07-30T12:16:26;6.88;;;3.17;;
20824;SDS011;10573;50.936;6.978;2022-07-30T12:18:53;7.03;;;3.10;;
20824;SDS011;10573;50.936;6.978;2022-07-30T12:21:19;6.53;;;2.70;;
20824;SDS011;10573;50.936;6.978;2022-07-30T12:23:55;6.00;;;2.60;;
20824;SDS011;10573;50.936;6.978;2022-07-30T12:26:25;3.58;;;2.17;;
20824;SDS011;10573;50.936;6.978;2022-07-30T12:28:53;5.18;;;2.13;;
20824;SDS011;10573;50.936;6.978;2022-07-30T12:31:20;3.22;;;1.70;;
20824;SDS011;10573;50.936;6.978;2022-07-30T12:33:46;4.88;;;2.50;;
20824;SDS011;10573;50.936;6.978;2022-07-30T12:36:22;4.07;;;2.17;;
20824;SDS011;10573;50.936;6.978;2022-07-30T12:38:49;6.43;;;2.80;;
20824;SDS011;10573;50.936;6.978;2022-07-30T12:41:16;4.47;;;2.03;;
20824;SDS011;10573;50.936;6.978;2022-07-30T12:43:43;4.65;;;2.38;;
20824;SDS011;10573;50.936;6.978;2022-07-30T12:46:09;4.35;;;1.92;;
20824;SDS011;10573;50.936;6.978;2022-07-30T12:48:35;4.30;;;2.40;;
20824;SDS011;10573;50.936;6.978;2022-07-30T12:51:05;3.10;;;2.03;;
20824;SDS011;10573;50.936;6.978;2022-07-30T12:53:31;4.40;;;1.90;;
20824;SDS011;10573;50.936;6.978;2022-07-30T12:56:10;8.77;;;2.47;;
20824;SDS011;10573;50.936;6.978;2022-07-30T12:58:41;5.90;;;2.08;;
20824;SDS011;10573;50.936;6.978;2022-07-30T13:01:07;3.85;;;1.88;;
20824;SDS011;10573;50.936;6.978;2022-07-30T13:03:33;7.85;;;1.98;;
20824;SDS011;10573;50.936;6.978;2022-07-30T13:06:17;3.65;;;1.80;;
20824;SDS011;10573;50.936;6.978;2022-07-30T13:08:45;4.45;;;1.55;;
20824;SDS011;10573;50.936;6.978;2022-07-30T13:11:11;3.22;;;1.52;;
20824;SDS011;10573;50.936;6.978;2022-07-30T13:13:36;3.75;;;1.50;;
20824;SDS011;10573;50.936;6.978;2022-07-30T13:16:03;2.00;;;1.48;;
20824;SDS011;10573;50.936;6.978;2022-07-30T13:18:30;3.25;;;1.73;;
20824;SDS011;10573;50.936;6.978;2022-07-30T13:20:57;3.10;;;1.70;;
20824;SDS011;10573;50.936;6.978;2022-07-30T13:23:23;4.53;;;2.10;;
20824;SDS011;10573;50.936;6.978;2022-07-30T13:25:49;2.60;;;2.00;;
20824;SDS011;10573;50.936;6.978;2022-07-30T13:28:14;3.08;;;1.65;;
20824;SDS011;10573;50.936;6.978;2022-07-30T13:30:40;3.97;;;1.65;;
20824;SDS011;10573;50.936;6.978;2022-07-30T13:33:05;4.35;;;1.48;;
20824;SDS011;10573;50.936;6.978;2022-07-30T13:35:31;3.78;;;1.63;;
20824;SDS011;10573;50.936;6.978;2022-07-30T13:37:56;3.33;;;1.40;;
20824;SDS011;10573;50.936;6.978;2022-07-30T13:40:22;5.38;;;1.40;;
20824;SDS011;10573;50.936;6.978;2022-07-30T13:42:47;5.75;;;1.50;;
20824;SDS011;10573;50.936;6.978;2022-07-30T13:45:12;3.95;;;1.27;;
20824;SDS011;10573;50.936;6.978;2022-07-30T13:47:38;2.03;;;1.48;;
20824;SDS011;10573;50.936;6.978;2022-07-30T13:50:03;3.90;;;1.58;;
20824;SDS011;10573;50.936;6.978;2022-07-30T13:52:30;6.82;;;1.73;;
20824;SDS011;10573;50.936;6.978;2022-07-30T13:54:55;6.43;;;1.80;;
20824;SDS011;10573;50.936;6.978;2022-07-30T13:57:21;4.37;;;1.73;;
20824;SDS011;10573;50.936;6.978;2022-07-30T13:59:46;3.20;;;1.40;;
20824;SDS011;10573;50.936;6.978;2022-07-30T14:02:12;4.17;;;1.53;;
20824;SDS011;10573;50.936;6.978;2022-07-30T14:04:37;3.17;;;1.60;;
20824;SDS011;10573;50.936;6.978;2022-07-30T14:07:03;2.90;;;1.70;;
20824;SDS011;10573;50.936;6.978;2022-07-30T14:09:29;4.80;;;1.70;;
20824;SDS011;10573;50.936;6.978;2022-07-30T14:11:54;3.23;;;1.73;;
20824;SDS011;10573;50.936;6.978;2022-07-30T14:14:20;3.30;;;1.70;;
20824;SDS011;10573;50.936;6.978;2022-07-30T14:16:46;2.55;;;1.40;;
20824;SDS011;10573;50.936;6.978;2022-07-30T14:19:15;3.88;;;1.35;;
20824;SDS011;10573;50.936;6.978;2022-07-30T14:21:41;3.42;;;1.40;;
20824;SDS011;10573;50.936;6.978;2022-07-30T14:24:06;2.05;;;0.90;;
20824;SDS011;10573;50.936;6.978;2022-07-30T14:26:32;1.95;;;1.60;;
20824;SDS011;10573;50.936;6.978;2022-07-30T14:28:57;4.65;;;1.20;;
20824;SDS011;10573;50.936;6.978;2022-07-30T14:31:23;1.88;;;1.30;;
20824;SDS011;10573;50.936;6.978;2022-07-30T14:33:48;3.40;;;1.25;;
20824;SDS011;10573;50.936;6.978;2022-07-30T14:36:14;2.60;;;1.00;;
20824;SDS011;10573;50.936;6.978;2022-07-30T14:38:39;4.55;;;1.35;;
20824;SDS011;10573;50.936;6.978;2022-07-30T14:41:05;3.63;;;1.60;;
20824;SDS011;10573;50.936;6.978;2022-07-30T14:43:32;4.68;;;1.27;;
20824;SDS011;10573;50.936;6.978;2022-07-30T14:45:58;3.25;;;0.95;;
20824;SDS011;10573;50.936;6.978;2022-07-30T14:48:23;1.13;;;1.00;;
20824;SDS011;10573;50.936;6.978;2022-07-30T14:50:49;3.75;;;1.00;;
20824;SDS011;10573;50.936;6.978;2022-07-30T14:53:14;1.40;;;0.93;;
20824;SDS011;10573;50.936;6.978;2022-07-30T14:55:40;1.98;;;0.90;;
20824;SDS011;10573;50.936;6.978;2022-07-30T14:58:06;1.60;;;1.08;;
20824;SDS011;10573;50.936;6.978;2022-07-30T15:00:32;3.38;;;0.90;;
20824;SDS011;10573;50.936;6.978;2022-07-30T15:02:57;1.42;;;0.90;;
20824;SDS011;10573;50.936;6.978;2022-07-30T15:05:22;2.35;;;1.10;;
20824;SDS011;10573;50.936;6.978;2022-07-30T15:07:48;2.53;;;0.98;;
20824;SDS011;10573;50.936;6.978;2022-07-30T15:10:13;1.75;;;1.00;;
20824;SDS011;10573;50.936;6.978;2022-07-30T15:12:39;3.17;;;0.95;;
20824;SDS011;10573;50.936;6.978;2022-07-30T15:15:05;1.87;;;0.83;;
20824;SDS011;10573;50.936;6.978;2022-07-30T15:17:31;3.30;;;0.70;;
20824;SDS011;10573;50.936;6.978;2022-07-30T15:19:57;7.57;;;4.18;;
20824;SDS011;10573;50.936;6.978;2022-07-30T15:22:22;2.83;;;0.93;;
20824;SDS011;10573;50.936;6.978;2022-07-30T15:24:48;2.10;;;1.10;;
20824;SDS011;10573;50.936;6.978;2022-07-30T15:27:13;2.22;;;0.77;;
20824;SDS011;10573;50.936;6.978;2022-07-30T15:29:39;1.63;;;0.90;;
20824;SDS011;10573;50.936;6.978;2022-07-30T15:32:04;1.40;;;0.93;;
20824;SDS011;10573;50.936;6.978;2022-07-30T15:34:30;2.00;;;0.93;;
20824;SDS011;10573;50.936;6.978;2022-07-30T15:36:58;3.30;;;1.00;;
20824;SDS011;10573;50.936;6.978;2022-07-30T15:39:24;2.05;;;0.90;;
20824;SDS011;10573;50.936;6.978;2022-07-30T15:41:53;1.33;;;0.88;;
20824;SDS011;10573;50.936;6.978;2022-07-30T15:44:19;2.70;;;1.02;;
20824;SDS011;10573;50.936;6.978;2022-07-30T15:46:44;1.77;;;0.90;;
20824;SDS011;10573;50.936;6.978;2022-07-30T15:49:10;3.00;;;0.90;;
20824;SDS011;10573;50.936;6.978;2022-07-30T15:51:35;3.42;;;0.93;;
20824;SDS011;10573;50.936;6.978;2022-07-30T15:54:01;2.47;;;0.90;;
20824;SDS011;10573;50.936;6.978;2022-07-30T15:56:26;2.83;;;0.80;;
20824;SDS011;10573;50.936;6.978;2022-07-30T15:58:55;2.50;;;1.00;;
20824;SDS011;10573;50.936;6.978;2022-07-30T16:01:21;1.52;;;0.73;;
20824;SDS011;10573;50.936;6.978;2022-07-30T16:03:47;4.00;;;2.87;;
20824;SDS011;10573;50.936;6.978;2022-07-30T16:06:12;3.77;;;2.00;;
20824;SDS011;10573;50.936;6.978;2022-07-30T16:08:38;1.80;;;1.20;;
20824;SDS011;10573;50.936;6.978;2022-07-30T16:11:04;1.80;;;1.00;;
20824;SDS011;10573;50.936;6.978;2022-07-30T16:13:30;3.77;;;1.00;;
20824;SDS011;10573;50.936;6.978;2022-07-30T16:15:55;3.72;;;0.85;;
20824;SDS011;10573;50.936;6.978;2022-07-30T16:18:21;1.80;;;1.00;;
20824;SDS011;10573;50.936;6.978;2022-07-30T16:20:46;2.00;;;1.10;;
20824;SDS011;10573;50.936;6.978;2022-07-30T16:23:12;2.63;;;1.13;;
20824;SDS011;10573;50.936;6.978;2022-07-30T16:25:37;2.23;;;1.00;;
20824;SDS011;10573;50.936;6.978;2022-07-30T16:28:03;1.60;;;1.00;;
20824;SDS011;10573;50.936;6.978;2022-07-30T16:30:28;3.40;;;0.90;;
20824;SDS011;10573;50.936;6.978;2022-07-30T16:32:53;1.42;;;0.93;;
20824;SDS011;10573;50.936;6.978;2022-07-30T16:35:21;1.75;;;1.05;;
20824;SDS011;10573;50.936;6.978;2022-07-30T16:37:47;4.22;;;1.15;;
20824;SDS011;10573;50.936;6.978;2022-07-30T16:40:13;5.77;;;1.87;;
20824;SDS011;10573;50.936;6.978;2022-07-30T16:42:38;3.10;;;1.20;;
20824;SDS011;10573;50.936;6.978;2022-07-30T16:45:03;3.53;;;1.30;;
20824;SDS011;10573;50.936;6.978;2022-07-30T16:47:29;2.30;;;1.30;;
20824;SDS011;10573;50.936;6.978;2022-07-30T16:49:55;3.63;;;1.10;;
20824;SDS011;10573;50.936;6.978;2022-07-30T16:52:20;3.40;;;1.07;;
20824;SDS011;10573;50.936;6.978;2022-07-30T16:54:46;5.03;;;1.50;;
20824;SDS011;10573;50.936;6.978;2022-07-30T16:57:11;3.70;;;1.47;;
20824;SDS011;10573;50.936;6.978;2022-07-30T16:59:37;3.00;;;2.10;;
20824;SDS011;10573;50.936;6.978;2022-07-30T17:02:03;3.33;;;1.55;;
20824;SDS011;10573;50.936;6.978;2022-07-30T17:04:28;1.83;;;1.07;;
20824;SDS011;10573;50.936;6.978;2022-07-30T17:06:54;3.17;;;1.65;;
20824;SDS011;10573;50.936;6.978;2022-07-30T17:09:19;4.40;;;1.60;;
20824;SDS011;10573;50.936;6.978;2022-07-30T17:11:45;3.80;;;1.23;;
20824;SDS011;10573;50.936;6.978;2022-07-30T17:14:12;2.55;;;1.20;;
20824;SDS011;10573;50.936;6.978;2022-07-30T17:16:38;3.25;;;1.45;;
20824;SDS011;10573;50.936;6.978;2022-07-30T17:19:04;4.10;;;1.60;;
20824;SDS011;10573;50.936;6.978;2022-07-30T17:21:29;2.90;;;1.50;;
20824;SDS011;10573;50.936;6.978;2022-07-30T17:23:55;2.30;;;1.10;;
20824;SDS011;10573;50.936;6.978;2022-07-30T17:26:20;3.00;;;1.70;;
20824;SDS011;10573;50.936;6.978;2022-07-30T17:28:45;2.40;;;1.17;;
20824;SDS011;10573;50.936;6.978;2022-07-30T17:31:11;3.75;;;1.10;;
20824;SDS011;10573;50.936;6.978;2022-07-30T17:33:36;2.90;;;1.70;;
20824;SDS011;10573;50.936;6.978;2022-07-30T17:36:02;3.97;;;1.50;;
20824;SDS011;10573;50.936;6.978;2022-07-30T17:38:29;4.18;;;1.38;;
20824;SDS011;10573;50.936;6.978;2022-07-30T17:40:54;4.20;;;1.90;;
20824;SDS011;10573;50.936;6.978;2022-07-30T17:43:20;3.13;;;1.53;;
20824;SDS011;10573;50.936;6.978;2022-07-30T17:45:45;3.80;;;1.40;;
20824;SDS011;10573;50.936;6.978;2022-07-30T17:48:10;3.37;;;1.50;;
20824;SDS011;10573;50.936;6.978;2022-07-30T17:50:36;4.97;;;1.40;;
20824;SDS011;10573;50.936;6.978;2022-07-30T17:53:02;2.00;;;1.20;;
20824;SDS011;10573;50.936;6.978;2022-07-30T17:55:30;2.05;;;1.15;;
20824;SDS011;10573;50.936;6.978;2022-07-30T17:57:59;3.80;;;1.38;;
20824;SDS011;10573;50.936;6.978;2022-07-30T18:00:25;1.83;;;1.42;;
20824;SDS011;10573;50.936;6.978;2022-07-30T18:02:50;4.53;;;1.75;;
20824;SDS011;10573;50.936;6.978;2022-07-30T18:05:16;4.67;;;1.50;;
20824;SDS011;10573;50.936;6.978;2022-07-30T18:07:42;6.77;;;1.80;;
20824;SDS011;10573;50.936;6.978;2022-07-30T18:10:08;3.03;;;1.43;;
20824;SDS011;10573;50.936;6.978;2022-07-30T18:12:34;2.90;;;1.40;;
20824;SDS011;10573;50.936;6.978;2022-07-30T18:15:00;3.20;;;1.70;;
20824;SDS011;10573;50.936;6.978;2022-07-30T18:17:25;2.73;;;1.30;;
20824;SDS011;10573;50.936;6.978;2022-07-30T18:22:55;2.80;;;1.27;;
20824;SDS011;10573;50.936;6.978;2022-07-30T18:25:20;3.00;;;1.43;;
20824;SDS011;10573;50.936;6.978;2022-07-30T18:27:46;3.03;;;1.60;;
20824;SDS011;10573;50.936;6.978;2022-07-30T18:30:12;3.15;;;1.50;;
20824;SDS011;10573;50.936;6.978;2022-07-30T18:32:37;4.20;;;1.25;;
20824;SDS011;10573;50.936;6.978;2022-07-30T18:35:03;3.40;;;1.23;;
20824;SDS011;10573;50.936;6.978;2022-07-30T18:37:28;4.47;;;1.40;;
20824;SDS011;10573;50.936;6.978;2022-07-30T18:39:54;2.88;;;1.45;;
20824;SDS011;10573;50.936;6.978;2022-07-30T18:42:19;4.27;;;1.53;;
20824;SDS011;10573;50.936;6.978;2022-07-30T18:44:45;5.20;;;1.80;;
20824;SDS011;10573;50.936;6.978;2022-07-30T18:47:10;4.00;;;1.93;;
20824;SDS011;10573;50.936;6.978;2022-07-30T18:49:35;2.60;;;1.33;;
20824;SDS011;10573;50.936;6.978;2022-07-30T18:52:01;2.43;;;1.57;;
20824;SDS011;10573;50.936;6.978;2022-07-30T18:54:26;4.78;;;1.65;;
20824;SDS011;10573;50.936;6.978;2022-07-30T18:56:52;3.20;;;1.70;;
20824;SDS011;10573;50.936;6.978;2022-07-30T18:59:17;3.97;;;1.43;;
20824;SDS011;10573;50.936;6.978;2022-07-30T19:01:43;3.27;;;1.77;;
20824;SDS011;10573;50.936;6.978;2022-07-30T19:04:08;3.78;;;1.42;;
20824;SDS011;10573;50.936;6.978;2022-07-30T19:06:34;3.73;;;1.77;;
20824;SDS011;10573;50.936;6.978;2022-07-30T19:09:02;4.15;;;1.88;;
20824;SDS011;10573;50.936;6.978;2022-07-30T19:11:29;2.85;;;1.60;;
20824;SDS011;10573;50.936;6.978;2022-07-30T19:13:55;4.43;;;1.90;;
20824;SDS011;10573;50.936;6.978;2022-07-30T19:16:20;3.23;;;2.00;;
20824;SDS011;10573;50.936;6.978;2022-07-30T19:18:45;4.15;;;1.63;;
20824;SDS011;10573;50.936;6.978;2022-07-30T19:21:11;3.00;;;1.77;;
20824;SDS011;10573;50.936;6.978;2022-07-30T19:23:36;3.40;;;1.93;;
20824;SDS011;10573;50.936;6.978;2022-07-30T19:26:02;4.10;;;1.97;;
20824;SDS011;10573;50.936;6.978;2022-07-30T19:28:29;5.15;;;2.03;;
20824;SDS011;10573;50.936;6.978;2022-07-30T19:30:57;6.50;;;2.60;;
20824;SDS011;10573;50.936;6.978;2022-07-30T19:33:22;8.17;;;2.00;;
20824;SDS011;10573;50.936;6.978;2022-07-30T19:35:48;5.67;;;2.40;;
20824;SDS011;10573;50.936;6.978;2022-07-30T19:38:14;6.28;;;2.78;;
20824;SDS011;10573;50.936;6.978;2022-07-30T19:40:40;5.72;;;2.30;;
20824;SDS011;10573;50.936;6.978;2022-07-30T19:43:06;5.60;;;2.78;;
20824;SDS011;10573;50.936;6.978;2022-07-30T19:45:32;6.77;;;2.87;;
20824;SDS011;10573;50.936;6.978;2022-07-30T19:48:00;5.70;;;2.53;;
20824;SDS011;10573;50.936;6.978;2022-07-30T19:50:27;4.00;;;2.42;;
20824;SDS011;10573;50.936;6.978;2022-07-30T19:52:53;3.38;;;1.90;;
20824;SDS011;10573;50.936;6.978;2022-07-30T19:55:19;4.97;;;2.20;;
20824;SDS011;10573;50.936;6.978;2022-07-30T19:57:45;4.65;;;2.53;;
20824;SDS011;10573;50.936;6.978;2022-07-30T20:00:10;6.78;;;2.90;;
20824;SDS011;10573;50.936;6.978;2022-07-30T20:02:36;4.57;;;2.50;;
20824;SDS011;10573;50.936;6.978;2022-07-30T20:05:03;4.28;;;2.05;;
20824;SDS011;10573;50.936;6.978;2022-07-30T20:07:28;3.78;;;1.90;;
20824;SDS011;10573;50.936;6.978;2022-07-30T20:09:54;5.82;;;2.00;;
20824;SDS011;10573;50.936;6.978;2022-07-30T20:12:21;2.60;;;1.42;;
20824;SDS011;10573;50.936;6.978;2022-07-30T20:14:46;5.50;;;1.87;;
20824;SDS011;10573;50.936;6.978;2022-07-30T20:17:12;2.90;;;1.60;;
20824;SDS011;10573;50.936;6.978;2022-07-30T20:19:37;2.28;;;1.48;;
20824;SDS011;10573;50.936;6.978;2022-07-30T20:22:03;3.57;;;1.73;;
20824;SDS011;10573;50.936;6.978;2022-07-30T20:24:28;8.27;;;2.40;;
20824;SDS011;10573;50.936;6.978;2022-07-30T20:26:54;2.93;;;2.00;;
20824;SDS011;10573;50.936;6.978;2022-07-30T20:29:19;6.37;;;1.87;;
20824;SDS011;10573;50.936;6.978;2022-07-30T20:31:45;3.50;;;1.83;;
20824;SDS011;10573;50.936;6.978;2022-07-30T20:34:10;6.82;;;2.50;;
20824;SDS011;10573;50.936;6.978;2022-07-30T20:36:36;4.67;;;2.30;;
20824;SDS011;10573;50.936;6.978;2022-07-30T20:39:02;10.82;;;4.85;;
20824;SDS011;10573;50.936;6.978;2022-07-30T20:41:27;5.97;;;3.88;;
20824;SDS011;10573;50.936;6.978;2022-07-30T20:43:52;14.30;;;8.20;;
20824;SDS011;10573;50.936;6.978;2022-07-30T20:46:18;9.00;;;4.17;;
20824;SDS011;10573;50.936;6.978;2022-07-30T20:48:44;2.92;;;2.10;;
20824;SDS011;10573;50.936;6.978;2022-07-30T20:51:10;3.78;;;1.80;;
20824;SDS011;10573;50.936;6.978;2022-07-30T20:53:35;3.10;;;1.90;;
20824;SDS011;10573;50.936;6.978;2022-07-30T20:56:00;2.93;;;1.70;;
20824;SDS011;10573;50.936;6.978;2022-07-30T20:58:26;4.73;;;1.80;;
20824;SDS011;10573;50.936;6.978;2022-07-30T21:00:51;4.77;;;2.40;;
20824;SDS011;10573;50.936;6.978;2022-07-30T21:03:19;7.40;;;2.03;;
20824;SDS011;10573;50.936;6.978;2022-07-30T21:05:45;4.43;;;1.92;;
20824;SDS011;10573;50.936;6.978;2022-07-30T21:08:11;3.80;;;1.83;;
20824;SDS011;10573;50.936;6.978;2022-07-30T21:10:37;3.88;;;1.83;;
20824;SDS011;10573;50.936;6.978;2022-07-30T21:13:03;4.40;;;2.10;;
20824;SDS011;10573;50.936;6.978;2022-07-30T21:15:29;4.70;;;2.00;;
20824;SDS011;10573;50.936;6.978;2022-07-30T21:17:59;4.15;;;2.00;;
20824;SDS011;10573;50.936;6.978;2022-07-30T21:20:25;3.43;;;1.70;;
20824;SDS011;10573;50.936;6.978;2022-07-30T21:22:51;2.50;;;1.65;;
20824;SDS011;10573;50.936;6.978;2022-07-30T21:25:18;6.38;;;2.10;;
20824;SDS011;10573;50.936;6.978;2022-07-30T21:27:44;6.10;;;1.92;;
20824;SDS011;10573;50.936;6.978;2022-07-30T21:30:09;4.73;;;1.90;;
20824;SDS011;10573;50.936;6.978;2022-07-30T21:32:35;3.40;;;2.00;;
20824;SDS011;10573;50.936;6.978;2022-07-30T21:35:01;3.40;;;1.90;;
20824;SDS011;10573;50.936;6.978;2022-07-30T21:37:26;4.47;;;2.03;;
20824;SDS011;10573;50.936;6.978;2022-07-30T21:39:52;3.97;;;2.20;;
20824;SDS011;10573;50.936;6.978;2022-07-30T21:42:17;6.35;;;4.05;;
20824;SDS011;10573;50.936;6.978;2022-07-30T21:44:42;4.57;;;2.20;;
20824;SDS011;10573;50.936;6.978;2022-07-30T21:47:08;5.33;;;2.40;;
20824;SDS011;10573;50.936;6.978;2022-07-30T21:49:33;3.33;;;2.50;;
20824;SDS011;10573;50.936;6.978;2022-07-30T21:51:59;4.63;;;2.43;;
20824;SDS011;10573;50.936;6.978;2022-07-30T21:54:24;7.80;;;4.20;;
20824;SDS011;10573;50.936;6.978;2022-07-30T21:56:49;9.30;;;4.57;;
20824;SDS011;10573;50.936;6.978;2022-07-30T21:59:15;7.73;;;3.10;;
20824;SDS011;10573;50.936;6.978;2022-07-30T22:01:40;5.40;;;3.73;;
20824;SDS011;10573;50.936;6.978;2022-07-30T22:04:06;5.80;;;3.40;;
20824;SDS011;10573;50.936;6.978;2022-07-30T22:06:35;5.10;;;2.65;;
20824;SDS011;10573;50.936;6.978;2022-07-30T22:09:02;6.80;;;2.70;;
20824;SDS011;10573;50.936;6.978;2022-07-30T22:11:28;4.78;;;2.88;;
20824;SDS011;10573;50.936;6.978;2022-07-30T22:13:54;3.93;;;2.40;;
20824;SDS011;10573;50.936;6.978;2022-07-30T22:16:19;4.87;;;2.30;;
20824;SDS011;10573;50.936;6.978;2022-07-30T22:18:45;6.70;;;3.00;;
20824;SDS011;10573;50.936;6.978;2022-07-30T22:21:11;5.60;;;2.57;;
20824;SDS011;10573;50.936;6.978;2022-07-30T22:23:36;5.03;;;2.40;;
20824;SDS011;10573;50.936;6.978;2022-07-30T22:26:02;4.77;;;2.10;;
20824;SDS011;10573;50.936;6.978;2022-07-30T22:28:27;4.57;;;2.53;;
20824;SDS011;10573;50.936;6.978;2022-07-30T22:30:53;4.67;;;2.13;;
20824;SDS011;10573;50.936;6.978;2022-07-30T22:33:18;5.05;;;2.53;;
20824;SDS011;10573;50.936;6.978;2022-07-30T22:35:45;4.33;;;2.83;;
20824;SDS011;10573;50.936;6.978;2022-07-30T22:38:12;4.75;;;2.20;;
20824;SDS011;10573;50.936;6.978;2022-07-30T22:40:38;4.72;;;2.17;;
20824;SDS011;10573;50.936;6.978;2022-07-30T22:43:08;6.27;;;3.73;;
20824;SDS011;10573;50.936;6.978;2022-07-30T22:45:36;5.15;;;2.17;;
20824;SDS011;10573;50.936;6.978;2022-07-30T22:48:02;3.88;;;2.33;;
20824;SDS011;10573;50.936;6.978;2022-07-30T22:50:27;4.85;;;2.22;;
20824;SDS011;10573;50.936;6.978;2022-07-30T22:52:53;4.23;;;2.60;;
20824;SDS011;10573;50.936;6.978;2022-07-30T22:55:19;5.40;;;2.40;;
20824;SDS011;10573;50.936;6.978;2022-07-30T22:57:45;4.88;;;2.47;;
20824;SDS011;10573;50.936;6.978;2022-07-30T23:00:11;5.33;;;2.63;;
20824;SDS011;10573;50.936;6.978;2022-07-30T23:02:39;7.15;;;2.60;;
20824;SDS011;10573;50.936;6.978;2022-07-30T23:05:05;3.25;;;2.10;;
20824;SDS011;10573;50.936;6.978;2022-07-30T23:07:31;4.60;;;2.15;;
20824;SDS011;10573;50.936;6.978;2022-07-30T23:09:57;3.10;;;2.13;;
20824;SDS011;10573;50.936;6.978;2022-07-30T23:12:22;3.90;;;2.23;;
20824;SDS011;10573;50.936;6.978;2022-07-30T23:14:48;5.10;;;1.87;;
20824;SDS011;10573;50.936;6.978;2022-07-30T23:17:13;5.30;;;2.08;;
20824;SDS011;10573;50.936;6.978;2022-07-30T23:19:39;3.23;;;2.00;;
20824;SDS011;10573;50.936;6.978;2022-07-30T23:22:04;3.90;;;2.53;;
20824;SDS011;10573;50.936;6.978;2022-07-30T23:24:31;2.92;;;2.00;;
20824;SDS011;10573;50.936;6.978;2022-07-30T23:26:57;4.68;;;2.30;;
20824;SDS011;10573;50.936;6.978;2022-07-30T23:29:22;3.47;;;1.97;;
20824;SDS011;10573;50.936;6.978;2022-07-30T23:31:48;3.40;;;2.27;;
20824;SDS011;10573;50.936;6.978;2022-07-30T23:34:13;2.63;;;1.70;;
20824;SDS011;10573;50.936;6.978;2022-07-30T23:36:39;3.23;;;1.87;;
20824;SDS011;10573;50.936;6.978;2022-07-30T23:39:04;3.70;;;1.87;;
20824;SDS011;10573;50.936;6.978;2022-07-30T23:41:29;2.92;;;1.80;;
20824;SDS011;10573;50.936;6.978;2022-07-30T23:43:55;4.90;;;1.80;;
20824;SDS011;10573;50.936;6.978;2022-07-30T23:46:20;3.97;;;1.97;;
20824;SDS011;10573;50.936;6.978;2022-07-30T23:48:46;3.10;;;1.70;;
20824;SDS011;10573;50.936;6.978;2022-07-30T23:51:11;3.07;;;1.80;;
20824;SDS011;10573;50.936;6.978;2022-07-30T23:53:36;4.47;;;2.05;;
20824;SDS011;10573;50.936;6.978;2022-07-30T23:56:02;3.27;;;1.70;;
20824;SDS011;10573;50.936;6.978;2022-07-30T23:58:27;4.70;;;2.50;;
